createdAt,value
2019-04-16T00:01:36.200Z,1.95
2019-04-16T00:04:24.989Z,1.60
2019-04-16T00:07:20.192Z,1.62
2019-04-16T00:10:04.040Z,1.05
2019-04-16T00:12:52.580Z,1.80
2019-04-16T00:15:22.027Z,1.67
2019-04-16T00:17:51.475Z,1.82
2019-04-16T00:20:20.925Z,1.37
2019-04-16T00:22:56.766Z,1.32
2019-04-16T00:25:26.232Z,1.12
2019-04-16T00:27:59.514Z,0.82
2019-04-16T00:30:26.769Z,1.10
2019-04-16T00:32:56.286Z,1.40
2019-04-16T00:35:25.727Z,1.12
2019-04-16T00:37:55.202Z,1.32
2019-04-16T00:40:26.603Z,1.25
2019-04-16T00:42:55.735Z,1.12
2019-04-16T00:45:25.180Z,1.65
2019-04-16T00:47:54.647Z,1.22
2019-04-16T00:50:25.475Z,1.60
2019-04-16T00:52:54.920Z,1.80
2019-04-16T00:55:24.363Z,1.40
2019-04-16T00:57:53.827Z,1.50
2019-04-16T01:00:23.271Z,1.52
2019-04-16T01:02:52.724Z,1.40
2019-04-16T01:05:22.179Z,1.27
2019-04-16T01:07:51.647Z,1.62
2019-04-16T01:10:21.101Z,1.40
2019-04-16T01:12:50.543Z,1.37
2019-04-16T01:15:19.996Z,1.20
2019-04-16T01:17:49.439Z,0.98
2019-04-16T01:20:18.920Z,1.30
2019-04-16T01:22:48.379Z,1.57
2019-04-16T01:25:20.264Z,1.10
2019-04-16T01:27:53.963Z,1.47
2019-04-16T01:30:36.566Z,1.98
2019-04-16T01:33:21.975Z,1.92
2019-04-16T01:36:16.254Z,2.27
2019-04-16T01:39:07.612Z,1.05
2019-04-16T01:41:25.047Z,1.70
2019-04-16T01:43:57.139Z,1.90
2019-04-16T01:46:25.584Z,1.12
2019-04-16T01:48:55.049Z,0.95
2019-04-16T01:51:24.492Z,1.30
2019-04-16T01:53:53.953Z,1.22
2019-04-16T01:56:27.939Z,1.15
2019-04-16T01:58:54.864Z,0.95
2019-04-16T02:01:24.291Z,1.10
2019-04-16T02:03:53.735Z,1.15
2019-04-16T02:06:25.605Z,1.22
2019-04-16T02:08:54.271Z,1.10
2019-04-16T02:11:23.720Z,1.05
2019-04-16T02:13:53.163Z,1.07
2019-04-16T02:16:25.256Z,1.20
2019-04-16T02:18:53.703Z,0.85
2019-04-16T02:21:23.147Z,1.30
2019-04-16T02:23:52.600Z,1.35
2019-04-16T02:26:23.533Z,1.02
2019-04-16T02:28:53.120Z,1.20
2019-04-16T02:31:22.573Z,1.30
2019-04-16T02:33:52.027Z,1.30
2019-04-16T02:36:21.512Z,1.12
2019-04-16T02:38:53.189Z,1.60
2019-04-16T02:41:23.330Z,1.12
2019-04-16T02:43:53.166Z,2.10
2019-04-16T02:46:22.627Z,1.50
2019-04-16T02:48:52.067Z,1.80
2019-04-16T02:51:46.599Z,2.60
2019-04-16T02:54:34.480Z,3.02
2019-04-16T02:57:25.919Z,2.08
2019-04-16T02:59:52.928Z,1.55
2019-04-16T03:02:47.061Z,1.52
2019-04-16T03:05:26.479Z,2.40
2019-04-16T03:07:55.127Z,1.70
2019-04-16T03:10:24.565Z,0.82
2019-04-16T03:12:53.995Z,1.25
2019-04-16T03:16:02.794Z,0.95
2019-04-16T03:18:47.412Z,1.25
2019-04-16T03:21:16.204Z,1.50
2019-04-16T03:23:45.678Z,1.32
2019-04-16T03:26:17.590Z,0.90
2019-04-16T03:28:46.252Z,1.57
2019-04-16T03:31:22.249Z,1.10
2019-04-16T03:33:50.202Z,1.30
2019-04-16T03:36:17.872Z,1.72
2019-04-16T03:38:47.359Z,0.93
2019-04-16T03:41:16.818Z,0.82
2019-04-16T03:43:46.265Z,1.42
2019-04-16T03:46:15.717Z,1.62
2019-04-16T03:48:45.155Z,1.47
2019-04-16T03:51:14.607Z,1.57
2019-04-16T03:53:46.564Z,1.87
2019-04-16T03:56:15.182Z,1.95
2019-04-16T03:58:44.626Z,1.50
2019-04-16T04:01:15.310Z,1.70
2019-04-16T04:03:44.903Z,1.45
2019-04-16T04:06:14.345Z,1.30
2019-04-16T04:08:48.029Z,1.15
2019-04-16T04:11:14.891Z,1.15
2019-04-16T04:13:49.519Z,1.07
2019-04-16T04:16:15.468Z,1.20
2019-04-16T04:18:44.923Z,1.25
2019-04-16T04:21:14.376Z,0.98
2019-04-16T04:23:43.823Z,1.50
2019-04-16T04:26:13.271Z,2.27
2019-04-16T04:28:42.732Z,1.35
2019-04-16T04:31:12.366Z,11.65
2019-04-16T04:33:43.083Z,8.30
2019-04-16T04:36:12.995Z,6.47
2019-04-16T04:38:42.506Z,8.20
2019-04-16T04:41:11.954Z,6.90
2019-04-16T04:43:41.402Z,4.70
2019-04-16T04:46:14.519Z,2.52
2019-04-16T04:48:42.119Z,2.10
2019-04-16T04:51:11.573Z,2.75
2019-04-16T04:53:41.015Z,1.92
2019-04-16T04:56:10.460Z,1.37
2019-04-16T04:58:39.920Z,3.80
2019-04-16T05:01:12.618Z,3.40
2019-04-16T05:04:11.232Z,3.20
2019-04-16T05:06:42.098Z,9.48
2019-04-16T05:09:11.571Z,6.30
2019-04-16T05:11:41.007Z,3.60
2019-04-16T05:14:10.567Z,2.85
2019-04-16T05:16:40.080Z,2.42
2019-04-16T05:19:13.864Z,1.85
2019-04-16T05:21:40.643Z,1.98
2019-04-16T05:24:10.139Z,1.87
2019-04-16T05:26:39.982Z,1.95
2019-04-16T05:29:17.520Z,1.40
2019-04-16T05:31:44.398Z,1.55
2019-04-16T05:34:17.386Z,1.80
2019-04-16T05:36:47.677Z,1.50
2019-04-16T05:39:16.310Z,1.67
2019-04-16T05:41:45.771Z,1.40
2019-04-16T05:44:15.228Z,2.70
2019-04-16T05:46:46.804Z,1.40
2019-04-16T05:49:15.820Z,2.42
2019-04-16T05:51:45.276Z,1.50
2019-04-16T05:54:26.107Z,2.80
2019-04-16T05:56:57.184Z,1.57
2019-04-16T05:59:26.657Z,1.42
2019-04-16T06:02:07.646Z,1.10
2019-04-16T06:04:37.104Z,1.50
2019-04-16T06:07:07.734Z,1.20
2019-04-16T06:09:37.510Z,1.65
2019-04-16T06:12:08.780Z,1.50
2019-04-16T06:14:56.989Z,1.57
2019-04-16T06:17:44.191Z,7.60
2019-04-16T06:20:21.396Z,2.87
2019-04-16T06:23:08.753Z,2.55
2019-04-16T06:25:41.388Z,2.67
2019-04-16T06:28:29.000Z,2.90
2019-04-16T06:31:23.195Z,2.72
2019-04-16T06:34:26.874Z,2.00
2019-04-16T06:37:27.451Z,3.05
2019-04-16T06:40:05.562Z,1.95
2019-04-16T06:42:54.206Z,1.25
2019-04-16T06:45:36.527Z,1.50
2019-04-16T06:48:12.845Z,1.77
2019-04-16T06:51:13.214Z,2.10
2019-04-16T06:54:07.517Z,2.98
2019-04-16T06:56:44.580Z,2.10
2019-04-16T06:59:36.195Z,2.70
2019-04-16T07:02:30.729Z,8.75
2019-04-16T07:05:11.430Z,4.22
2019-04-16T07:07:58.052Z,2.50
2019-04-16T07:10:43.735Z,5.58
2019-04-16T07:13:02.151Z,2.45
2019-04-16T07:15:31.592Z,1.75
2019-04-16T07:18:02.471Z,1.35
2019-04-16T07:20:32.149Z,2.10
2019-04-16T07:23:01.595Z,1.80
2019-04-16T07:25:31.914Z,1.82
2019-04-16T07:28:06.520Z,2.40
2019-04-16T07:30:41.522Z,1.62
2019-04-16T07:33:30.084Z,1.85
2019-04-16T07:36:27.274Z,1.50
2019-04-16T07:39:28.989Z,1.15
2019-04-16T07:42:11.792Z,1.22
2019-04-16T07:44:45.319Z,1.47
2019-04-16T07:47:32.000Z,1.55
2019-04-16T07:50:06.663Z,1.05
2019-04-16T07:52:55.032Z,1.12
2019-04-16T07:55:42.845Z,2.27
2019-04-16T07:58:12.290Z,2.02
2019-04-16T08:00:41.721Z,1.92
2019-04-16T08:03:11.226Z,1.20
2019-04-16T08:05:41.787Z,1.67
2019-04-16T08:08:11.328Z,1.50
2019-04-16T08:10:40.768Z,1.62
2019-04-16T08:13:20.958Z,1.62
2019-04-16T08:15:50.397Z,2.05
2019-04-16T08:18:19.888Z,1.80
2019-04-16T08:21:00.356Z,1.40
2019-04-16T08:23:30.782Z,1.40
2019-04-16T08:26:04.085Z,0.80
2019-04-16T08:28:32.051Z,1.20
2019-04-16T08:31:02.118Z,1.42
2019-04-16T08:33:32.607Z,1.20
2019-04-16T08:36:02.047Z,3.15
2019-04-16T08:38:34.077Z,2.67
2019-04-16T08:41:02.871Z,3.77
2019-04-16T08:43:32.318Z,2.42
2019-04-16T08:46:01.727Z,2.33
2019-04-16T08:48:31.184Z,1.65
2019-04-16T08:51:00.629Z,1.70
2019-04-16T08:53:30.068Z,2.12
2019-04-16T08:55:59.516Z,2.08
2019-04-16T08:58:28.963Z,2.17
2019-04-16T09:00:58.581Z,2.00
2019-04-16T09:03:30.012Z,1.20
2019-04-16T09:05:59.120Z,2.00
2019-04-16T09:08:47.504Z,1.30
2019-04-16T09:11:23.668Z,1.50
2019-04-16T09:13:52.686Z,1.35
2019-04-16T09:16:22.320Z,1.72
2019-04-16T09:18:57.744Z,1.65
2019-04-16T09:21:28.079Z,1.72
2019-04-16T09:24:14.955Z,1.25
2019-04-16T09:26:52.683Z,1.20
2019-04-16T09:29:40.326Z,1.50
2019-04-16T09:32:28.732Z,1.20
2019-04-16T09:35:19.968Z,1.45
2019-04-16T09:37:53.248Z,1.32
2019-04-16T09:40:49.262Z,1.70
2019-04-16T09:43:22.070Z,1.90
2019-04-16T09:45:51.514Z,1.52
2019-04-16T09:48:20.948Z,2.08
2019-04-16T09:50:50.448Z,2.50
2019-04-16T09:53:32.863Z,1.90
2019-04-16T09:55:51.307Z,2.05
2019-04-16T09:58:22.909Z,1.80
2019-04-16T10:01:04.607Z,1.62
2019-04-16T10:03:36.148Z,1.70
2019-04-16T10:06:06.103Z,2.67
2019-04-16T10:08:35.555Z,1.47
2019-04-16T10:11:06.186Z,1.65
2019-04-16T10:13:36.482Z,2.00
2019-04-16T10:16:06.132Z,1.77
2019-04-16T10:18:36.037Z,2.17
2019-04-16T10:21:05.839Z,2.30
2019-04-16T10:23:50.706Z,3.87
2019-04-16T10:26:20.481Z,3.65
2019-04-16T10:28:50.167Z,2.42
2019-04-16T10:31:20.353Z,2.25
2019-04-16T10:33:49.817Z,2.42
2019-04-16T10:36:19.337Z,1.37
2019-04-16T10:38:54.710Z,1.60
2019-04-16T10:41:32.399Z,1.75
2019-04-16T10:44:32.670Z,2.15
2019-04-16T10:47:20.480Z,1.67
2019-04-16T10:50:15.090Z,1.70
2019-04-16T10:53:03.539Z,1.47
2019-04-16T10:55:54.684Z,1.85
2019-04-16T10:58:41.489Z,2.35
2019-04-16T11:01:32.962Z,1.85
2019-04-16T11:04:17.786Z,2.15
2019-04-16T11:06:48.685Z,1.70
2019-04-16T11:09:18.337Z,2.25
2019-04-16T11:11:47.814Z,2.08
2019-04-16T11:14:17.639Z,2.10
2019-04-16T11:16:49.989Z,1.87
2019-04-16T11:19:19.655Z,2.37
2019-04-16T11:21:49.119Z,1.90
2019-04-16T11:24:20.457Z,2.00
2019-04-16T11:26:49.614Z,1.85
2019-04-16T11:29:19.325Z,2.00
2019-04-16T11:31:48.754Z,2.10
2019-04-16T11:34:18.175Z,2.00
2019-04-16T11:36:47.631Z,2.22
2019-04-16T11:39:17.057Z,2.60
2019-04-16T11:41:46.872Z,1.87
2019-04-16T11:44:17.400Z,2.37
2019-04-16T11:46:47.033Z,3.10
2019-04-16T11:49:16.431Z,2.02
2019-04-16T11:51:45.926Z,2.35
2019-04-16T11:54:15.360Z,3.15
2019-04-16T11:56:46.215Z,1.90
2019-04-16T11:59:15.685Z,1.72
2019-04-16T12:02:05.527Z,1.70
2019-04-16T12:04:58.834Z,1.65
2019-04-16T12:07:53.104Z,1.80
2019-04-16T12:10:44.159Z,2.45
2019-04-16T12:13:19.932Z,2.17
2019-04-16T12:16:14.183Z,2.42
2019-04-16T12:19:17.919Z,2.60
2019-04-16T12:22:10.887Z,2.92
2019-04-16T12:25:05.516Z,1.90
2019-04-16T12:27:53.279Z,1.80
2019-04-16T12:30:40.235Z,1.50
2019-04-16T12:33:28.748Z,1.90
2019-04-16T12:36:17.097Z,1.37
2019-04-16T12:38:56.023Z,2.10
2019-04-16T12:41:43.025Z,1.75
2019-04-16T12:44:27.862Z,2.00
2019-04-16T12:47:28.405Z,1.27
2019-04-16T12:50:09.974Z,2.42
2019-04-16T12:52:55.002Z,1.80
2019-04-16T12:55:32.821Z,2.20
2019-04-16T12:58:27.340Z,1.90
2019-04-16T13:01:12.222Z,1.70
2019-04-16T13:04:06.326Z,2.20
2019-04-16T13:06:51.427Z,1.67
2019-04-16T13:09:32.587Z,1.80
2019-04-16T13:12:10.097Z,1.60
2019-04-16T13:15:00.969Z,1.60
2019-04-16T13:17:57.866Z,2.30
2019-04-16T13:20:44.483Z,1.90
2019-04-16T13:23:20.965Z,2.10
2019-04-16T13:25:57.855Z,2.23
2019-04-16T13:28:26.786Z,2.10
2019-04-16T13:30:55.718Z,2.10
2019-04-16T13:33:25.981Z,1.90
2019-04-16T13:35:55.219Z,1.85
2019-04-16T13:38:27.261Z,2.20
2019-04-16T13:41:03.987Z,2.00
2019-04-16T13:43:40.631Z,2.12
2019-04-16T13:46:10.093Z,2.17
2019-04-16T13:49:01.102Z,2.05
2019-04-16T13:51:29.692Z,2.98
2019-04-16T13:54:04.106Z,2.90
2019-04-16T13:56:44.589Z,2.00
2019-04-16T13:59:20.987Z,2.20
2019-04-16T14:02:18.792Z,2.08
2019-04-16T14:04:47.571Z,2.00
2019-04-16T14:07:17.012Z,2.77
2019-04-16T14:09:46.449Z,2.42
2019-04-16T14:12:15.896Z,2.30
2019-04-16T14:14:46.672Z,2.20
2019-04-16T14:17:18.580Z,2.20
2019-04-16T14:19:48.044Z,1.75
2019-04-16T14:22:21.680Z,2.30
2019-04-16T14:24:48.561Z,1.75
2019-04-16T14:27:18.003Z,3.00
2019-04-16T14:29:47.971Z,4.37
2019-04-16T14:32:17.420Z,4.05
2019-04-16T14:34:57.933Z,7.33
2019-04-16T14:37:27.368Z,2.90
2019-04-16T14:40:14.355Z,7.45
2019-04-16T14:42:43.696Z,2.92
2019-04-16T14:45:21.030Z,3.95
2019-04-16T14:47:50.427Z,2.77
2019-04-16T14:50:20.089Z,3.33
2019-04-16T14:52:50.810Z,2.05
2019-04-16T14:55:38.126Z,2.75
2019-04-16T14:58:22.038Z,3.12
2019-04-16T15:01:00.439Z,1.65
2019-04-16T15:03:47.500Z,2.25
2019-04-16T15:06:34.150Z,1.82
2019-04-16T15:09:21.518Z,2.17
2019-04-16T15:12:09.779Z,1.75
2019-04-16T15:14:44.103Z,1.90
2019-04-16T15:17:16.577Z,2.75
2019-04-16T15:19:59.196Z,2.10
2019-04-16T15:22:56.427Z,1.90
2019-04-16T15:25:36.370Z,2.58
2019-04-16T15:28:15.557Z,1.30
2019-04-16T15:31:15.775Z,1.27
2019-04-16T15:33:49.105Z,1.75
2019-04-16T15:36:40.287Z,2.10
2019-04-16T15:39:20.639Z,1.80
2019-04-16T15:42:16.370Z,1.67
2019-04-16T15:45:02.497Z,1.67
2019-04-16T15:47:46.962Z,1.37
2019-04-16T15:50:35.910Z,1.22
2019-04-16T15:53:12.629Z,1.60
2019-04-16T15:56:05.546Z,2.17
2019-04-16T15:58:49.094Z,1.75
2019-04-16T16:01:35.923Z,1.80
2019-04-16T16:04:16.699Z,2.10
2019-04-16T16:06:52.316Z,1.57
2019-04-16T16:09:27.664Z,1.72
2019-04-16T16:12:04.096Z,2.52
2019-04-16T16:14:38.732Z,1.60
2019-04-16T16:17:07.644Z,1.62
2019-04-16T16:19:37.597Z,1.20
2019-04-16T16:22:11.066Z,4.25
2019-04-16T16:24:42.058Z,2.12
2019-04-16T16:27:09.035Z,3.17
2019-04-16T16:29:38.375Z,2.65
2019-04-16T16:32:08.030Z,1.80
2019-04-16T16:34:37.429Z,1.85
2019-04-16T16:37:06.763Z,2.50
2019-04-16T16:39:36.102Z,1.87
2019-04-16T16:42:05.450Z,2.15
2019-04-16T16:44:34.858Z,2.30
2019-04-16T16:47:26.269Z,2.27
2019-04-16T16:49:55.909Z,1.70
2019-04-16T16:52:44.226Z,1.60
2019-04-16T16:55:18.207Z,4.08
2019-04-16T16:57:56.030Z,8.88
2019-04-16T17:00:42.684Z,7.75
2019-04-16T17:03:24.367Z,5.28
2019-04-16T17:05:54.023Z,7.25
2019-04-16T17:08:23.406Z,3.40
2019-04-16T17:10:52.750Z,3.98
2019-04-16T17:13:22.170Z,2.33
2019-04-16T17:15:51.562Z,3.35
2019-04-16T17:18:20.901Z,3.05
2019-04-16T17:20:50.591Z,2.50
2019-04-16T17:23:19.919Z,2.17
2019-04-16T17:25:49.254Z,3.15
2019-04-16T17:28:18.580Z,1.87
2019-04-16T17:30:47.928Z,2.92
2019-04-16T17:33:17.275Z,2.25
2019-04-16T17:35:47.145Z,2.55
2019-04-16T17:38:16.543Z,2.60
2019-04-16T17:41:00.246Z,2.35
2019-04-16T17:43:59.907Z,2.33
2019-04-16T17:46:43.441Z,1.65
2019-04-16T17:49:24.414Z,1.82
2019-04-16T17:51:58.895Z,1.70
2019-04-16T17:54:53.055Z,1.65
2019-04-16T17:57:44.837Z,2.42
2019-04-16T18:00:46.038Z,1.85
2019-04-16T18:03:45.867Z,2.40
2019-04-16T18:06:34.443Z,1.92
2019-04-16T18:09:15.186Z,1.30
2019-04-16T18:11:58.362Z,1.75
2019-04-16T18:14:44.983Z,1.35
2019-04-16T18:17:46.886Z,2.02
2019-04-16T18:20:21.674Z,1.95
2019-04-16T18:23:12.122Z,1.98
2019-04-16T18:25:59.279Z,1.80
2019-04-16T18:28:32.838Z,2.83
2019-04-16T18:31:07.755Z,2.10
2019-04-16T18:33:59.450Z,1.90
2019-04-16T18:36:36.572Z,4.37
2019-04-16T18:39:25.486Z,2.40
2019-04-16T18:42:05.170Z,2.85
2019-04-16T18:44:46.140Z,1.92
2019-04-16T18:47:37.751Z,2.45
2019-04-16T18:50:11.759Z,1.98
2019-04-16T18:52:41.101Z,2.30
2019-04-16T18:55:10.518Z,1.77
2019-04-16T18:57:39.939Z,2.35
2019-04-16T19:00:35.333Z,1.87
2019-04-16T19:03:04.683Z,2.22
2019-04-16T19:05:34.062Z,1.70
2019-04-16T19:08:03.395Z,1.30
2019-04-16T19:10:32.724Z,2.08
2019-04-16T19:13:02.135Z,1.75
2019-04-16T19:15:31.765Z,1.80
2019-04-16T19:18:17.247Z,1.90
2019-04-16T19:20:32.238Z,2.15
2019-04-16T19:23:01.584Z,2.00
2019-04-16T19:25:30.975Z,2.33
2019-04-16T19:28:04.464Z,2.30
2019-04-16T19:30:31.372Z,2.60
2019-04-16T19:33:01.979Z,2.17
2019-04-16T19:35:31.734Z,2.50
2019-04-16T19:38:02.663Z,3.17
2019-04-16T19:40:32.174Z,2.60
2019-04-16T19:43:03.182Z,3.02
2019-04-16T19:45:32.574Z,3.65
2019-04-16T19:48:02.352Z,3.17
2019-04-16T19:50:36.135Z,2.70
2019-04-16T19:53:02.935Z,3.12
2019-04-16T19:55:32.282Z,2.77
2019-04-16T19:58:01.695Z,2.40
2019-04-16T20:00:31.039Z,2.95
2019-04-16T20:03:00.387Z,2.52
2019-04-16T20:05:29.727Z,2.75
2019-04-16T20:07:59.168Z,4.05
2019-04-16T20:10:28.568Z,2.62
2019-04-16T20:12:59.746Z,2.83
2019-04-16T20:15:29.239Z,3.35
2019-04-16T20:17:58.649Z,2.00
2019-04-16T20:20:28.059Z,2.90
2019-04-16T20:22:57.386Z,3.35
2019-04-16T20:25:26.732Z,3.22
2019-04-16T20:27:56.156Z,2.80
2019-04-16T20:30:25.555Z,2.30
2019-04-16T20:32:55.279Z,2.83
2019-04-16T20:35:24.689Z,2.80
2019-04-16T20:37:55.199Z,2.60
2019-04-16T20:40:25.027Z,3.27
2019-04-16T20:42:54.442Z,3.77
2019-04-16T20:45:23.851Z,3.10
2019-04-16T20:47:53.190Z,3.55
2019-04-16T20:50:22.523Z,3.25
2019-04-16T20:52:51.855Z,2.77
2019-04-16T20:55:21.283Z,4.65
2019-04-16T20:57:50.693Z,4.85
2019-04-16T21:00:26.415Z,2.35
2019-04-16T21:02:56.024Z,2.20
2019-04-16T21:05:25.351Z,2.58
2019-04-16T21:07:54.680Z,2.77
2019-04-16T21:10:24.012Z,2.80
2019-04-16T21:12:55.177Z,2.70
2019-04-16T21:15:27.499Z,3.40
2019-04-16T21:17:56.257Z,4.42
2019-04-16T21:20:25.659Z,3.10
2019-04-16T21:22:57.404Z,3.35
2019-04-16T21:25:26.044Z,4.65
2019-04-16T21:28:08.226Z,3.47
2019-04-16T21:30:40.452Z,2.75
2019-04-16T21:33:17.681Z,3.40
2019-04-16T21:35:49.713Z,2.85
2019-04-16T21:38:22.695Z,3.85
2019-04-16T21:40:52.848Z,2.80
2019-04-16T21:43:23.084Z,3.90
2019-04-16T21:45:52.411Z,2.75
2019-04-16T21:48:23.803Z,2.72
2019-04-16T21:50:54.202Z,3.75
2019-04-16T21:53:24.601Z,2.62
2019-04-16T21:55:55.396Z,3.08
2019-04-16T21:58:24.799Z,2.35
2019-04-16T22:01:15.955Z,3.15
2019-04-16T22:03:48.306Z,3.05
2019-04-16T22:06:20.385Z,3.30
2019-04-16T22:08:48.682Z,3.00
2019-04-16T22:11:18.036Z,2.80
2019-04-16T22:13:50.491Z,3.42
2019-04-16T22:16:18.519Z,3.40
2019-04-16T22:18:47.842Z,3.98
2019-04-16T22:21:17.174Z,3.30
2019-04-16T22:23:50.180Z,3.47
2019-04-16T22:26:17.547Z,2.15
2019-04-16T22:28:46.874Z,3.40
2019-04-16T22:31:16.210Z,2.60
2019-04-16T22:33:45.539Z,2.65
2019-04-16T22:36:14.866Z,2.90
2019-04-16T22:38:47.144Z,2.37
2019-04-16T22:41:35.486Z,2.95
2019-04-16T22:44:15.538Z,2.37
2019-04-16T22:46:50.994Z,2.70
2019-04-16T22:49:22.528Z,2.40
2019-04-16T22:51:51.411Z,2.02
2019-04-16T22:54:21.639Z,2.40
2019-04-16T22:57:00.952Z,3.15
2019-04-16T22:59:28.456Z,2.08
2019-04-16T23:01:57.855Z,2.05
2019-04-16T23:04:27.182Z,2.45
2019-04-16T23:06:56.724Z,2.45
2019-04-16T23:09:27.463Z,2.08
2019-04-16T23:11:57.193Z,2.75
2019-04-16T23:14:26.615Z,1.90
2019-04-16T23:16:56.042Z,2.27
2019-04-16T23:19:25.450Z,1.40
2019-04-16T23:21:54.806Z,2.00
2019-04-16T23:24:24.277Z,1.70
2019-04-16T23:26:53.811Z,2.33
2019-04-16T23:29:23.152Z,2.80
2019-04-16T23:31:55.246Z,1.90
2019-04-16T23:34:23.534Z,2.30
2019-04-16T23:36:53.003Z,2.08
2019-04-16T23:39:22.335Z,1.62
2019-04-16T23:41:51.662Z,2.00
2019-04-16T23:44:54.680Z,2.37
2019-04-16T23:47:42.974Z,1.95
2019-04-16T23:50:44.273Z,2.10
2019-04-16T23:53:12.838Z,2.30
2019-04-16T23:56:01.334Z,1.72
2019-04-16T23:58:36.837Z,2.83
